Time;durP1;ratioP1;P1;durP2;ratioP2;P2;SDS_P1;SDS_P2;PMS_P1;PMS_P2;Temp;Humidity;BMP_temperature;BMP_pressure;BME280_temperature;BME280_humidity;BME280_pressure;Samples;Min_cycle;Max_cycle;Signal;HPM_P1;HPM_P2
2023/11/28 00:01:09;;;;;;;21.70;15.73;;;6.70;94.50;;;;;;5069353;28;20256;-63
2023/11/28 00:03:36;;;;;;;20.67;16.07;;;6.70;94.60;;;;;;5067585;28;20679;-63
2023/11/28 00:06:03;;;;;;;18.17;15.50;;;6.70;94.70;;;;;;5066837;28;20239;-62
2023/11/28 00:08:32;;;;;;;21.20;15.80;;;6.70;94.70;;;;;;5068673;28;20217;-62
2023/11/28 00:10:59;;;;;;;23.13;15.60;;;6.70;94.70;;;;;;5066499;28;20209;-63
2023/11/28 00:13:28;;;;;;;22.30;15.63;;;6.80;94.80;;;;;;5062580;28;20200;-63
2023/11/28 00:15:55;;;;;;;20.63;15.57;;;6.80;94.80;;;;;;5067979;28;20195;-63
2023/11/28 00:18:22;;;;;;;20.70;15.60;;;6.80;94.80;;;;;;5069210;28;20210;-63
2023/11/28 00:20:49;;;;;;;20.93;16.17;;;6.80;94.90;;;;;;5063255;28;20199;-62
2023/11/28 00:23:16;;;;;;;23.33;15.07;;;6.80;95.00;;;;;;5060219;28;20260;-63
2023/11/28 00:25:43;;;;;;;22.00;16.90;;;6.80;95.00;;;;;;5060786;28;20212;-63
2023/11/28 00:28:10;;;;;;;22.47;15.87;;;6.80;95.10;;;;;;5066632;28;20206;-63
2023/11/28 00:30:38;;;;;;;25.17;16.17;;;6.80;95.10;;;;;;5056417;28;20198;-63
2023/11/28 00:33:05;;;;;;;23.63;15.60;;;6.80;95.20;;;;;;5057509;28;20199;-63
2023/11/28 00:35:32;;;;;;;22.43;16.37;;;6.80;95.20;;;;;;5065676;28;20213;-63
2023/11/28 00:37:59;;;;;;;24.50;16.17;;;6.80;95.30;;;;;;5053534;28;20272;-63
2023/11/28 00:40:29;;;;;;;20.97;14.90;;;6.80;95.30;;;;;;5068828;28;20639;-63
2023/11/28 00:42:57;;;;;;;21.77;15.80;;;6.80;95.30;;;;;;5063094;28;20206;-63
2023/11/28 00:45:25;;;;;;;21.57;15.73;;;6.80;95.40;;;;;;5038443;28;20233;-63
2023/11/28 00:47:53;;;;;;;22.67;16.07;;;6.70;95.30;;;;;;5046699;28;20205;-63
2023/11/28 00:50:21;;;;;;;23.50;15.37;;;6.70;95.30;;;;;;5063442;28;20198;-63
2023/11/28 00:52:49;;;;;;;23.60;17.47;;;6.70;95.30;;;;;;5055947;28;20222;-63
2023/11/28 00:55:17;;;;;;;19.87;15.33;;;6.70;95.50;;;;;;5066095;28;20202;-63
2023/11/28 00:57:45;;;;;;;25.70;17.23;;;6.60;95.50;;;;;;5065294;28;20530;-63
2023/11/28 01:00:13;;;;;;;21.13;17.03;;;6.70;95.60;;;;;;5054933;28;20693;-63
2023/11/28 01:02:41;;;;;;;24.00;17.10;;;6.70;95.60;;;;;;5055699;28;20252;-63
2023/11/28 01:05:08;;;;;;;26.60;17.60;;;6.60;95.70;;;;;;5068222;28;20345;-63
2023/11/28 01:07:36;;;;;;;23.70;17.60;;;6.70;95.80;;;;;;5053431;28;20199;-63
2023/11/28 01:10:05;;;;;;;26.17;17.93;;;6.60;95.80;;;;;;5055462;28;20198;-63
2023/11/28 01:12:32;;;;;;;25.80;18.40;;;6.60;95.80;;;;;;5061846;28;20217;-63
2023/11/28 01:14:59;;;;;;;25.80;18.07;;;6.60;95.90;;;;;;5064105;28;20198;-63
2023/11/28 01:17:26;;;;;;;22.37;17.37;;;6.60;95.90;;;;;;5067329;28;20247;-63
2023/11/28 01:19:53;;;;;;;22.97;16.67;;;6.60;95.80;;;;;;5065550;28;20271;-63
2023/11/28 01:22:21;;;;;;;23.00;16.07;;;6.60;95.80;;;;;;5063877;28;20616;-63
2023/11/28 01:24:47;;;;;;;22.37;16.07;;;6.50;95.80;;;;;;5063306;28;20590;-63
2023/11/28 01:27:14;;;;;;;22.83;17.40;;;6.50;95.80;;;;;;5064723;28;20186;-63
2023/11/28 01:29:42;;;;;;;19.27;16.57;;;6.40;95.90;;;;;;5053306;28;20314;-63
2023/11/28 01:32:09;;;;;;;23.80;17.20;;;6.40;96.00;;;;;;5066630;28;20286;-63
2023/11/28 01:34:36;;;;;;;20.00;16.03;;;6.40;96.10;;;;;;5065011;28;20230;-63
2023/11/28 01:37:03;;;;;;;22.03;15.47;;;6.30;96.20;;;;;;5046048;28;20223;-63
2023/11/28 01:39:30;;;;;;;22.50;16.03;;;6.40;96.30;;;;;;5061095;28;20667;-63
2023/11/28 01:41:57;;;;;;;20.63;16.30;;;6.30;96.30;;;;;;5068048;28;20624;-63
2023/11/28 01:44:24;;;;;;;20.57;15.77;;;6.30;96.40;;;;;;5054800;28;20656;-63
2023/11/28 01:46:53;;;;;;;28.23;16.23;;;6.30;96.40;;;;;;5066787;28;20206;-63
2023/11/28 01:49:20;;;;;;;23.60;16.93;;;6.30;96.60;;;;;;5063241;28;20213;-63
2023/11/28 01:51:48;;;;;;;20.00;15.30;;;6.30;96.60;;;;;;5065292;28;20526;-63
2023/11/28 01:54:15;;;;;;;21.60;15.57;;;6.30;96.50;;;;;;5065322;28;20243;-63
2023/11/28 01:56:43;;;;;;;20.87;15.27;;;6.20;96.50;;;;;;5063355;28;20207;-63
2023/11/28 01:59:13;;;;;;;24.13;16.37;;;6.20;96.60;;;;;;5054977;28;20213;-63
2023/11/28 02:01:43;;;;;;;21.03;15.27;;;6.20;96.60;;;;;;5061278;28;20255;-63
2023/11/28 02:04:10;;;;;;;20.10;15.27;;;6.20;96.70;;;;;;5066358;28;20389;-63
2023/11/28 02:06:39;;;;;;;20.13;14.87;;;6.20;96.80;;;;;;5049561;28;20640;-63
2023/11/28 02:09:08;;;;;;;21.37;14.77;;;6.20;96.90;;;;;;5066538;28;20201;-63
2023/11/28 02:11:35;;;;;;;19.77;14.57;;;6.20;96.90;;;;;;5066984;28;20198;-63
2023/11/28 02:14:03;;;;;;;18.50;14.63;;;6.20;96.90;;;;;;5066084;28;20202;-63
2023/11/28 02:16:30;;;;;;;19.10;15.03;;;6.30;97.00;;;;;;5049992;28;20213;-63
2023/11/28 02:18:57;;;;;;;23.67;15.73;;;6.30;97.00;;;;;;5053102;28;20241;-63
2023/11/28 02:21:24;;;;;;;22.63;14.60;;;6.30;97.00;;;;;;5053721;28;20206;-63
2023/11/28 02:23:51;;;;;;;16.70;13.33;;;6.30;97.00;;;;;;5066095;28;20186;-63
2023/11/28 02:26:23;;;;;;;17.90;14.03;;;6.30;97.00;;;;;;5053863;28;20217;-62
2023/11/28 02:28:51;;;;;;;19.67;15.13;;;6.30;97.00;;;;;;5040503;28;20214;-62
2023/11/28 02:31:18;;;;;;;20.30;14.40;;;6.30;96.80;;;;;;5059247;28;20206;-62
2023/11/28 02:33:48;;;;;;;24.80;16.20;;;6.30;96.80;;;;;;5064996;28;20193;-62
2023/11/28 02:36:15;;;;;;;19.63;14.53;;;6.30;96.80;;;;;;5053801;28;20198;-62
2023/11/28 02:38:42;;;;;;;20.97;13.90;;;6.30;96.80;;;;;;5061228;28;20209;-62
2023/11/28 02:41:09;;;;;;;18.00;14.03;;;6.30;96.90;;;;;;5064934;28;20217;-63
2023/11/28 02:43:37;;;;;;;18.30;12.87;;;6.30;96.90;;;;;;5063432;28;20302;-63
2023/11/28 02:46:04;;;;;;;21.13;14.27;;;6.30;96.90;;;;;;5063219;28;20205;-63
2023/11/28 02:48:31;;;;;;;18.63;13.57;;;6.30;96.80;;;;;;5063056;28;20527;-63
2023/11/28 02:50:58;;;;;;;18.87;14.40;;;6.30;96.80;;;;;;5064423;28;20217;-63
2023/11/28 02:53:26;;;;;;;16.47;13.47;;;6.20;96.80;;;;;;5066692;28;20206;-63
2023/11/28 02:55:53;;;;;;;18.73;13.20;;;6.20;96.90;;;;;;5064869;28;20228;-63
2023/11/28 02:58:20;;;;;;;22.83;13.90;;;6.20;97.00;;;;;;5059665;28;20205;-63
2023/11/28 03:00:47;;;;;;;17.00;13.10;;;6.20;96.90;;;;;;5057856;28;20634;-63
2023/11/28 03:03:14;;;;;;;18.17;12.83;;;6.10;96.90;;;;;;5050786;28;20210;-63
2023/11/28 03:05:41;;;;;;;17.57;13.60;;;6.10;97.00;;;;;;5051960;28;20239;-63
2023/11/28 03:08:08;;;;;;;18.10;12.93;;;6.10;97.00;;;;;;5068518;28;20205;-63
2023/11/28 03:10:36;;;;;;;19.73;13.80;;;6.10;97.00;;;;;;5064850;28;20206;-63
2023/11/28 03:13:04;;;;;;;20.73;14.40;;;6.10;97.10;;;;;;5063824;28;20288;-63
2023/11/28 03:15:31;;;;;;;21.33;12.73;;;6.10;97.10;;;;;;5067599;28;20515;-63
2023/11/28 03:17:58;;;;;;;16.33;13.53;;;6.00;97.10;;;;;;5062469;28;20697;-64
2023/11/28 03:20:25;;;;;;;15.27;12.60;;;6.00;97.00;;;;;;5062731;28;20218;-63
2023/11/28 03:22:52;;;;;;;16.93;13.60;;;6.00;97.00;;;;;;5064232;28;20241;-63
2023/11/28 03:25:19;;;;;;;20.43;13.63;;;6.00;97.00;;;;;;5065603;28;20200;-63
2023/11/28 03:27:46;;;;;;;17.87;13.63;;;6.00;97.10;;;;;;5065247;28;20197;-63
2023/11/28 03:30:14;;;;;;;19.60;14.67;;;5.90;97.20;;;;;;5062934;28;20436;-63
2023/11/28 03:32:42;;;;;;;17.90;14.23;;;5.90;97.20;;;;;;5053664;28;20224;-63
2023/11/28 03:35:09;;;;;;;19.03;14.43;;;5.90;97.20;;;;;;5063679;28;20257;-63
2023/11/28 03:37:36;;;;;;;19.27;14.40;;;5.90;97.30;;;;;;5052726;28;20205;-63
2023/11/28 03:40:03;;;;;;;20.23;14.53;;;5.90;97.30;;;;;;5056996;28;20218;-63
2023/11/28 03:42:30;;;;;;;24.57;16.33;;;5.90;97.40;;;;;;5060489;28;20198;-63
2023/11/28 03:44:57;;;;;;;17.10;14.73;;;5.90;97.50;;;;;;5062234;28;20197;-63
2023/11/28 03:47:24;;;;;;;18.00;15.10;;;5.90;97.50;;;;;;5063505;28;20209;-63
2023/11/28 03:49:51;;;;;;;21.00;15.93;;;5.90;97.50;;;;;;5058666;28;20198;-63
2023/11/28 03:52:18;;;;;;;21.77;15.47;;;5.90;97.50;;;;;;5054582;28;20624;-63
2023/11/28 03:54:45;;;;;;;17.77;14.07;;;5.90;97.50;;;;;;5061083;28;20210;-63
2023/11/28 03:57:13;;;;;;;15.70;12.60;;;5.90;97.60;;;;;;5054774;28;20655;-62
2023/11/28 03:59:40;;;;;;;19.23;14.10;;;5.90;97.60;;;;;;5065076;28;20610;-63
2023/11/28 04:02:07;;;;;;;19.43;14.43;;;6.00;97.60;;;;;;5067906;28;20194;-63
2023/11/28 04:04:35;;;;;;;18.83;13.43;;;6.00;97.70;;;;;;5057246;28;20244;-63
2023/11/28 04:07:03;;;;;;;19.10;14.70;;;6.00;97.70;;;;;;5055757;28;20795;-63
2023/11/28 04:09:30;;;;;;;15.73;13.40;;;6.00;97.70;;;;;;5064398;28;20203;-63
2023/11/28 04:11:57;;;;;;;19.40;14.50;;;6.00;97.70;;;;;;5069779;28;20206;-63
2023/11/28 04:14:25;;;;;;;15.87;13.20;;;6.10;97.70;;;;;;5063774;28;20226;-63
2023/11/28 04:16:52;;;;;;;16.57;13.53;;;6.10;98.00;;;;;;5041765;28;20324;-63
2023/11/28 04:19:19;;;;;;;19.90;15.27;;;6.10;97.70;;;;;;5050931;28;20229;-63
2023/11/28 04:21:46;;;;;;;21.30;15.63;;;6.10;97.60;;;;;;5065727;28;20198;-63
2023/11/28 04:24:13;;;;;;;20.30;15.70;;;6.20;97.60;;;;;;5056294;28;20610;-63
2023/11/28 04:26:41;;;;;;;18.67;14.97;;;6.10;97.60;;;;;;5052563;28;20202;-63
2023/11/28 04:29:09;;;;;;;21.17;15.93;;;6.10;97.60;;;;;;5047051;28;20630;-63
2023/11/28 04:31:36;;;;;;;21.77;16.93;;;6.10;97.70;;;;;;5050548;28;20202;-63
2023/11/28 04:34:04;;;;;;;22.03;17.00;;;6.10;97.70;;;;;;5052216;28;20214;-63
2023/11/28 04:36:31;;;;;;;21.60;17.10;;;6.10;97.70;;;;;;5069431;28;20220;-63
2023/11/28 04:38:59;;;;;;;23.70;17.87;;;6.10;97.70;;;;;;5064206;28;20599;-63
2023/11/28 04:41:28;;;;;;;21.60;16.83;;;6.10;97.70;;;;;;5050948;28;20226;-63
2023/11/28 04:43:55;;;;;;;23.67;18.00;;;6.10;97.70;;;;;;5054967;28;20539;-63
2023/11/28 04:46:22;;;;;;;24.47;18.43;;;6.10;97.80;;;;;;5054960;28;20539;-63
2023/11/28 04:48:49;;;;;;;26.67;19.50;;;6.10;97.80;;;;;;5064690;28;20244;-63
2023/11/28 04:51:16;;;;;;;24.97;20.23;;;6.10;97.90;;;;;;5069990;28;20216;-63
2023/11/28 04:53:43;;;;;;;29.50;20.63;;;6.10;97.90;;;;;;5055835;28;20558;-63
2023/11/28 04:56:11;;;;;;;27.43;19.33;;;6.20;98.00;;;;;;5063781;28;20695;-63
2023/11/28 04:58:43;;;;;;;24.33;19.93;;;6.10;98.00;;;;;;5051114;28;20269;-63
2023/11/28 05:01:10;;;;;;;31.80;21.10;;;6.10;98.00;;;;;;5046834;28;20217;-63
2023/11/28 05:03:37;;;;;;;28.50;20.33;;;6.20;98.10;;;;;;5044451;28;20198;-64
2023/11/28 05:06:05;;;;;;;31.77;21.00;;;6.10;98.00;;;;;;5065593;28;20240;-63
2023/11/28 05:08:32;;;;;;;25.83;20.50;;;6.20;98.00;;;;;;5053757;28;20621;-63
2023/11/28 05:11:04;;;;;;;24.10;20.17;;;6.10;98.00;;;;;;5065190;28;20277;-63
2023/11/28 05:13:36;;;;;;;26.33;20.87;;;6.20;98.10;;;;;;5048497;28;20211;-63
2023/11/28 05:16:03;;;;;;;27.60;20.63;;;6.10;98.00;;;;;;5065329;28;20260;-63
2023/11/28 05:18:30;;;;;;;25.40;19.97;;;6.20;98.10;;;;;;5053510;28;20209;-63
2023/11/28 05:20:57;;;;;;;26.40;20.97;;;6.10;98.10;;;;;;5055231;28;20695;-63
2023/11/28 05:23:25;;;;;;;24.40;19.40;;;6.10;98.10;;;;;;5054998;28;20608;-63
2023/11/28 05:25:52;;;;;;;25.87;19.40;;;6.20;98.10;;;;;;5052739;28;20198;-63
2023/11/28 05:28:20;;;;;;;29.10;19.80;;;6.10;98.10;;;;;;5055970;28;20222;-63
2023/11/28 05:30:47;;;;;;;27.13;19.97;;;6.10;98.10;;;;;;5055536;28;20202;-63
2023/11/28 05:33:16;;;;;;;24.67;19.70;;;6.10;98.10;;;;;;5053756;28;20196;-63
2023/11/28 05:35:43;;;;;;;26.50;20.30;;;6.10;98.10;;;;;;5065766;28;20244;-63
2023/11/28 05:38:11;;;;;;;25.40;19.73;;;6.10;98.10;;;;;;5063905;28;20198;-63
2023/11/28 05:40:39;;;;;;;24.77;20.60;;;6.10;98.00;;;;;;5038746;28;20228;-63
2023/11/28 05:43:06;;;;;;;27.00;18.70;;;6.10;98.10;;;;;;5047837;28;20203;-63
2023/11/28 05:45:33;;;;;;;22.90;18.90;;;6.10;98.10;;;;;;5054038;28;20267;-63
2023/11/28 05:48:02;;;;;;;25.27;20.27;;;6.10;98.00;;;;;;5049515;28;20205;-63
2023/11/28 05:50:30;;;;;;;27.40;19.30;;;6.10;98.00;;;;;;5049326;28;20292;-63
2023/11/28 05:52:57;;;;;;;23.70;18.93;;;6.10;98.00;;;;;;5062821;28;20532;-63
2023/11/28 05:55:25;;;;;;;29.33;20.03;;;6.10;97.90;;;;;;5047333;28;20627;-63
2023/11/28 05:57:52;;;;;;;25.13;19.73;;;6.10;98.10;;;;;;5042944;28;20525;-63
2023/11/28 06:00:19;;;;;;;24.10;19.57;;;6.10;98.00;;;;;;5054060;28;20224;-63
2023/11/28 06:02:46;;;;;;;26.67;20.37;;;6.10;98.00;;;;;;5062991;28;20228;-63
2023/11/28 06:05:14;;;;;;;28.13;20.07;;;6.10;98.00;;;;;;5063644;28;20234;-63
2023/11/28 06:07:42;;;;;;;24.40;19.83;;;6.10;98.00;;;;;;5044879;28;20589;-63
2023/11/28 06:10:10;;;;;;;25.07;19.87;;;6.10;98.00;;;;;;5054859;28;20201;-63
2023/11/28 06:12:38;;;;;;;26.37;19.17;;;6.10;98.10;;;;;;5038445;28;20212;-63
2023/11/28 06:15:07;;;;;;;24.30;20.53;;;6.10;98.10;;;;;;5052948;28;20267;-64
2023/11/28 06:17:34;;;;;;;26.60;20.43;;;6.10;98.10;;;;;;5047911;28;20206;-63
2023/11/28 06:20:04;;;;;;;27.77;19.47;;;6.10;98.10;;;;;;5061103;28;20241;-63
2023/11/28 06:22:32;;;;;;;30.73;19.53;;;6.20;98.20;;;;;;5051426;28;20531;-63
2023/11/28 06:24:59;;;;;;;23.83;19.50;;;6.20;98.20;;;;;;5051806;28;20278;-63
2023/11/28 06:27:26;;;;;;;25.43;19.40;;;6.20;98.20;;;;;;5068810;28;20272;-63
2023/11/28 06:29:54;;;;;;;21.97;18.93;;;6.20;98.20;;;;;;5061251;28;20632;-63
2023/11/28 06:32:21;;;;;;;25.97;19.87;;;6.20;98.20;;;;;;5069637;28;20201;-63
2023/11/28 06:34:48;;;;;;;26.23;19.50;;;6.20;98.20;;;;;;5061402;28;20209;-63
2023/11/28 06:37:15;;;;;;;23.33;19.23;;;6.20;98.20;;;;;;5069062;28;20251;-63
2023/11/28 06:39:45;;;;;;;24.97;18.53;;;6.20;98.20;;;;;;5066708;28;20651;-63
2023/11/28 06:42:13;;;;;;;30.67;19.87;;;6.20;98.20;;;;;;5064961;28;20451;-63
2023/11/28 06:44:40;;;;;;;25.27;19.67;;;6.20;98.20;;;;;;5056218;28;20213;-63
2023/11/28 06:47:07;;;;;;;27.50;20.20;;;6.20;98.30;;;;;;5059724;28;20198;-63
2023/11/28 06:49:35;;;;;;;25.13;19.60;;;6.20;98.30;;;;;;5056760;28;20202;-63
2023/11/28 06:52:02;;;;;;;26.33;20.17;;;6.30;98.40;;;;;;5060483;28;20214;-63
2023/11/28 06:54:29;;;;;;;26.10;20.23;;;6.30;98.30;;;;;;5066917;28;20699;-63
2023/11/28 06:56:56;;;;;;;22.47;18.63;;;6.30;98.40;;;;;;5059790;28;20220;-63
2023/11/28 06:59:23;;;;;;;25.27;19.87;;;6.30;98.40;;;;;;5062421;28;20241;-63
2023/11/28 07:01:50;;;;;;;24.83;18.77;;;6.30;98.40;;;;;;5060668;28;20197;-63
2023/11/28 07:04:18;;;;;;;24.00;18.83;;;6.30;98.40;;;;;;5062807;28;20210;-64
2023/11/28 07:06:45;;;;;;;24.67;19.37;;;6.30;98.50;;;;;;5063726;28;20423;-63
2023/11/28 07:09:12;;;;;;;22.33;18.90;;;6.30;98.50;;;;;;5063750;28;20628;-63
2023/11/28 07:11:40;;;;;;;25.43;19.97;;;6.40;98.50;;;;;;5063718;28;20196;-63
2023/11/28 07:14:07;;;;;;;29.20;20.43;;;6.40;98.50;;;;;;5046682;28;20220;-63
2023/11/28 07:16:34;;;;;;;30.03;19.87;;;6.40;98.50;;;;;;5063079;28;20213;-63
2023/11/28 07:19:02;;;;;;;30.57;21.07;;;6.40;98.50;;;;;;5064740;28;20232;-63
2023/11/28 07:21:29;;;;;;;27.73;20.73;;;6.40;98.60;;;;;;5069782;28;20286;-63
2023/11/28 07:23:56;;;;;;;28.37;20.93;;;6.50;98.70;;;;;;5062755;28;20190;-63
2023/11/28 07:26:23;;;;;;;29.87;20.83;;;6.50;98.70;;;;;;5068828;28;20621;-63
2023/11/28 07:28:50;;;;;;;28.57;20.60;;;6.50;98.60;;;;;;5047963;28;20230;-63
2023/11/28 07:31:17;;;;;;;28.97;20.73;;;6.50;98.60;;;;;;5067893;28;20282;-63
2023/11/28 07:33:44;;;;;;;29.77;21.07;;;6.60;98.70;;;;;;5066134;28;20293;-63
2023/11/28 07:36:11;;;;;;;25.17;20.17;;;6.60;98.70;;;;;;5063166;28;20517;-63
2023/11/28 07:38:42;;;;;;;27.33;20.77;;;6.60;98.70;;;;;;5067883;28;20236;-63
2023/11/28 07:41:13;;;;;;;26.97;21.00;;;6.70;98.60;;;;;;5067008;28;20206;-63
2023/11/28 07:43:41;;;;;;;30.07;21.53;;;6.70;98.70;;;;;;5065526;28;20281;-63
2023/11/28 07:46:09;;;;;;;28.20;21.73;;;6.70;98.70;;;;;;5067965;28;20253;-63
2023/11/28 07:48:36;;;;;;;30.77;22.13;;;6.80;98.70;;;;;;5072314;28;20207;-63
2023/11/28 07:51:04;;;;;;;30.93;21.93;;;6.80;98.60;;;;;;5061904;28;20428;-63
2023/11/28 07:53:32;;;;;;;27.47;20.53;;;6.90;98.60;;;;;;5068558;28;20863;-63
2023/11/28 07:55:59;;;;;;;25.50;20.37;;;6.80;98.50;;;;;;5064981;28;20197;-63
2023/11/28 07:58:26;;;;;;;25.57;19.30;;;6.90;98.50;;;;;;5060830;28;20264;-63
2023/11/28 08:00:53;;;;;;;27.93;20.73;;;6.90;98.40;;;;;;5063146;28;20233;-63
2023/11/28 08:03:20;;;;;;;24.17;20.27;;;6.90;98.40;;;;;;5068585;28;20201;-63
2023/11/28 08:05:48;;;;;;;25.70;20.90;;;6.90;98.40;;;;;;5067720;28;20478;-63
2023/11/28 08:08:15;;;;;;;30.27;21.40;;;6.90;98.30;;;;;;5069470;28;20282;-63
2023/11/28 08:10:43;;;;;;;28.40;21.50;;;7.00;98.40;;;;;;5061424;28;20195;-63
2023/11/28 08:13:15;;;;;;;29.43;21.07;;;6.90;98.30;;;;;;5064630;28;20252;-63
2023/11/28 08:15:42;;;;;;;32.00;22.27;;;6.90;98.50;;;;;;5062902;28;20203;-63
2023/11/28 08:18:09;;;;;;;31.97;22.83;;;6.90;98.20;;;;;;5069492;28;20230;-63
2023/11/28 08:20:36;;;;;;;32.07;21.80;;;6.90;98.20;;;;;;5063617;28;20642;-63
2023/11/28 08:23:03;;;;;;;32.33;23.00;;;6.90;98.10;;;;;;5069083;28;20202;-63
2023/11/28 08:25:30;;;;;;;30.57;21.43;;;7.00;98.10;;;;;;5062064;28;20191;-63
2023/11/28 08:27:57;;;;;;;31.27;24.13;;;6.90;98.10;;;;;;5069197;28;20210;-63
2023/11/28 08:30:24;;;;;;;31.77;22.87;;;7.00;98.20;;;;;;5064376;28;20212;-63
2023/11/28 08:32:51;;;;;;;31.17;23.47;;;6.90;97.80;;;;;;5064328;28;20697;-63
2023/11/28 08:35:19;;;;;;;31.53;23.40;;;6.90;97.70;;;;;;5051808;28;20220;-63
2023/11/28 08:37:46;;;;;;;32.47;24.33;;;6.90;97.50;;;;;;5042982;28;20212;-63
2023/11/28 08:40:13;;;;;;;30.50;23.90;;;6.90;97.30;;;;;;5068447;28;20206;-63
2023/11/28 08:42:40;;;;;;;32.80;24.03;;;6.80;97.10;;;;;;5064938;28;20275;-63
2023/11/28 08:45:08;;;;;;;36.27;25.00;;;6.80;96.90;;;;;;5066107;28;20527;-63
2023/11/28 08:47:35;;;;;;;35.30;26.13;;;6.70;97.00;;;;;;5064560;28;20641;-63
2023/11/28 08:50:06;;;;;;;35.83;25.93;;;6.60;97.10;;;;;;5069926;28;20267;-63
2023/11/28 08:52:33;;;;;;;35.83;26.43;;;6.50;97.20;;;;;;5057350;28;20198;-63
2023/11/28 08:55:01;;;;;;;41.70;26.63;;;6.50;97.40;;;;;;5066418;28;20217;-63
2023/11/28 08:57:33;;;;;;;31.50;22.63;;;6.50;97.60;;;;;;5068060;28;20647;-63
2023/11/28 09:00:05;;;;;;;40.53;26.03;;;6.60;97.80;;;;;;5057033;28;20221;-63
2023/11/28 09:02:32;;;;;;;37.73;25.27;;;6.70;98.00;;;;;;5042194;28;20203;-63
2023/11/28 09:05:00;;;;;;;37.50;26.53;;;6.70;98.10;;;;;;5058910;28;20231;-63
2023/11/28 09:07:27;;;;;;;33.20;24.83;;;6.80;98.20;;;;;;5064590;28;20190;-63
2023/11/28 09:09:54;;;;;;;35.73;24.00;;;7.00;98.30;;;;;;5069169;28;20620;-63
2023/11/28 09:12:21;;;;;;;37.90;25.83;;;7.10;98.30;;;;;;5066535;28;20199;-63
2023/11/28 09:14:48;;;;;;;33.63;23.30;;;7.20;98.30;;;;;;5059403;28;20260;-63
2023/11/28 09:17:22;;;;;;;32.80;23.93;;;7.30;98.20;;;;;;5064829;28;20196;-63
2023/11/28 09:19:50;;;;;;;32.53;24.67;;;7.50;98.10;;;;;;5063172;28;20628;-63
2023/11/28 09:22:17;;;;;;;29.13;22.17;;;7.50;97.90;;;;;;5066665;28;20530;-63
2023/11/28 09:24:44;;;;;;;33.50;23.93;;;7.60;97.70;;;;;;5067527;28;20205;-63
2023/11/28 09:27:12;;;;;;;34.33;25.30;;;7.50;97.20;;;;;;5070617;28;20290;-63
2023/11/28 09:29:39;;;;;;;33.67;24.93;;;7.40;97.00;;;;;;5044571;28;20199;-63
2023/11/28 09:32:06;;;;;;;33.97;24.17;;;7.40;97.00;;;;;;5063291;28;20199;-63
2023/11/28 09:34:34;;;;;;;36.27;26.03;;;7.40;97.10;;;;;;5048089;28;20266;-63
2023/11/28 09:37:01;;;;;;;37.57;27.33;;;7.40;97.20;;;;;;5036944;28;20627;-63
2023/11/28 09:39:28;;;;;;;36.97;26.73;;;7.40;97.20;;;;;;5063773;28;20217;-63
2023/11/28 09:41:59;;;;;;;41.43;29.63;;;7.50;97.40;;;;;;5063336;28;20226;-63
2023/11/28 09:44:30;;;;;;;38.00;28.70;;;7.50;97.40;;;;;;5067747;28;20202;-63
2023/11/28 09:47:06;;;;;;;40.57;27.17;;;7.60;97.50;;;;;;5064835;28;20265;-63
2023/11/28 09:49:41;;;;;;;37.47;26.63;;;7.70;97.50;;;;;;5046020;28;20190;-63
2023/11/28 09:52:12;;;;;;;36.07;25.97;;;7.80;97.40;;;;;;5070007;28;20565;-63
2023/11/28 09:54:40;;;;;;;36.87;25.60;;;7.80;97.20;;;;;;5051618;28;20205;-63
2023/11/28 09:57:08;;;;;;;35.63;26.33;;;7.90;97.10;;;;;;5054339;28;20200;-63
2023/11/28 09:59:39;;;;;;;36.43;26.67;;;7.90;97.10;;;;;;5053065;28;20209;-63
2023/11/28 10:02:14;;;;;;;42.97;27.60;;;8.00;97.10;;;;;;5060498;28;20270;-63
2023/11/28 10:04:42;;;;;;;36.10;27.57;;;8.10;97.10;;;;;;5059752;28;20556;-63
2023/11/28 10:07:12;;;;;;;33.93;27.13;;;8.10;97.30;;;;;;5063205;28;20676;-63
2023/11/28 10:09:41;;;;;;;34.77;24.73;;;8.20;97.00;;;;;;5067303;28;20279;-63
2023/11/28 10:12:10;;;;;;;35.57;25.30;;;8.30;97.00;;;;;;5053967;28;20238;-63
2023/11/28 10:14:40;;;;;;;33.53;23.73;;;8.50;97.00;;;;;;5065280;28;20191;-63
2023/11/28 10:17:09;;;;;;;33.40;23.97;;;8.60;96.90;;;;;;5060830;28;20207;-63
2023/11/28 10:19:36;;;;;;;32.00;25.37;;;8.70;96.70;;;;;;5060333;28;20208;-63
2023/11/28 10:22:06;;;;;;;32.90;25.10;;;8.80;96.60;;;;;;5068013;28;20281;-63
2023/11/28 10:24:34;;;;;;;31.50;24.50;;;8.80;96.40;;;;;;5063328;28;20190;-63
2023/11/28 10:27:02;;;;;;;33.00;24.67;;;8.80;96.20;;;;;;5062406;28;20195;-63
2023/11/28 10:29:29;;;;;;;33.57;26.03;;;8.90;96.10;;;;;;5058935;28;20216;-63
2023/11/28 10:31:56;;;;;;;32.93;24.43;;;8.90;96.10;;;;;;5059775;28;20647;-64
2023/11/28 10:34:24;;;;;;;34.27;24.87;;;9.00;96.00;;;;;;5046699;28;20203;-62
2023/11/28 10:36:51;;;;;;;34.17;24.67;;;9.10;95.90;;;;;;5062517;28;20198;-62
2023/11/28 10:39:21;;;;;;;33.80;26.07;;;9.20;95.70;;;;;;5059074;28;20637;-63
2023/11/28 10:41:48;;;;;;;36.10;25.53;;;9.30;95.60;;;;;;5066230;28;20229;-61
2023/11/28 10:44:16;;;;;;;33.67;23.87;;;9.40;95.40;;;;;;5060179;28;20208;-62
2023/11/28 10:46:44;;;;;;;41.27;25.77;;;9.40;95.00;;;;;;5065931;28;20206;-63
2023/11/28 10:49:11;;;;;;;40.53;28.60;;;9.40;94.70;;;;;;5061547;28;20463;-62
2023/11/28 10:51:38;;;;;;;37.33;28.43;;;9.40;94.40;;;;;;5069719;28;20213;-64
2023/11/28 10:54:33;;;;;;;40.57;29.37;;;9.40;94.40;;;;;;5067363;28;20284;-63
2023/11/28 10:57:11;;;;;;;38.97;28.70;;;9.40;94.20;;;;;;5065600;28;20198;-62
2023/11/28 10:59:41;;;;;;;34.43;27.33;;;9.50;94.20;;;;;;5070888;28;20227;-63
2023/11/28 11:02:14;;;;;;;38.87;28.47;;;9.50;94.20;;;;;;5070622;28;20288;-61
2023/11/28 11:04:41;;;;;;;40.20;30.07;;;9.60;94.20;;;;;;5068382;28;20255;-64
2023/11/28 11:07:09;;;;;;;37.47;28.77;;;9.70;94.20;;;;;;5067968;28;20293;-62
2023/11/28 11:09:36;;;;;;;39.67;30.33;;;9.70;94.20;;;;;;5068542;28;20557;-63
2023/11/28 11:12:05;;;;;;;35.20;27.13;;;9.80;94.20;;;;;;5068139;28;20493;-63
2023/11/28 11:15:04;;;;;;;38.60;29.40;;;9.90;94.10;;;;;;5068305;28;20204;-61
2023/11/28 11:17:54;;;;;;;36.13;27.90;;;10.00;92.90;;;;;;5066342;28;20282;-62
2023/11/28 11:20:25;;;;;;;38.23;29.97;;;9.90;92.80;;;;;;5063732;28;20212;-61
2023/11/28 11:22:59;;;;;;;35.97;28.43;;;10.00;93.20;;;;;;5065424;28;20189;-63
2023/11/28 11:25:45;;;;;;;37.47;28.43;;;10.00;93.20;;;;;;5068949;28;20199;-63
2023/11/28 11:28:13;;;;;;;43.37;29.60;;;10.10;93.30;;;;;;5069225;28;20236;-62
2023/11/28 11:30:42;;;;;;;37.07;27.27;;;10.20;93.30;;;;;;5072176;28;20284;-63
2023/11/28 11:33:12;;;;;;;40.60;27.90;;;10.30;93.30;;;;;;5066843;28;20206;-62
2023/11/28 11:36:07;;;;;;;39.47;28.50;;;10.40;93.20;;;;;;5069148;28;20287;-61
2023/11/28 11:38:36;;;;;;;38.17;27.10;;;10.50;93.10;;;;;;5065405;28;20201;-63
2023/11/28 11:41:08;;;;;;;33.50;25.57;;;10.60;93.10;;;;;;5064721;28;20306;-63
2023/11/28 11:43:37;;;;;;;33.83;26.33;;;10.60;92.70;;;;;;5061718;28;20225;-62
2023/11/28 11:46:16;;;;;;;38.67;24.83;;;10.70;92.40;;;;;;5064123;28;20198;-63
2023/11/28 11:48:43;;;;;;;36.70;26.50;;;10.70;91.80;;;;;;5069676;28;20229;-62
2023/11/28 11:51:11;;;;;;;36.60;25.07;;;10.70;91.70;;;;;;5050253;28;20204;-63
2023/11/28 11:53:41;;;;;;;40.93;26.70;;;10.80;91.90;;;;;;5061307;28;20258;-61
2023/11/28 11:56:10;;;;;;;34.70;26.83;;;10.80;91.90;;;;;;5058295;28;20226;-62
2023/11/28 11:58:42;;;;;;;36.97;25.97;;;10.90;91.90;;;;;;5064861;28;20211;-62
2023/11/28 12:01:11;;;;;;;36.17;26.27;;;10.90;91.80;;;;;;5049720;28;20232;-61
2023/11/28 12:03:38;;;;;;;41.20;27.97;;;11.00;91.30;;;;;;5066572;28;20282;-61
2023/11/28 12:06:06;;;;;;;37.30;26.60;;;11.00;91.30;;;;;;5064992;28;20241;-62
2023/11/28 12:08:36;;;;;;;38.23;26.40;;;11.00;90.40;;;;;;5066404;28;20206;-62
2023/11/28 12:11:11;;;;;;;39.47;27.13;;;10.90;90.10;;;;;;5066892;28;20201;-63
2023/11/28 12:13:39;;;;;;;36.53;25.40;;;10.80;90.30;;;;;;5069116;28;20190;-62
2023/11/28 12:16:09;;;;;;;36.97;25.23;;;10.70;90.70;;;;;;5066511;28;20623;-63
2023/11/28 12:18:37;;;;;;;38.00;25.70;;;10.70;91.00;;;;;;5068764;28;20219;-63
2023/11/28 12:21:04;;;;;;;36.07;25.27;;;10.70;91.00;;;;;;5063878;28;20313;-63
2023/11/28 12:23:31;;;;;;;31.20;23.33;;;10.80;90.90;;;;;;5069239;28;20615;-62
2023/11/28 12:25:58;;;;;;;38.63;24.57;;;10.80;90.80;;;;;;5066024;28;20212;-62
2023/11/28 12:28:26;;;;;;;34.57;23.60;;;10.80;90.70;;;;;;5069130;28;20206;-62
2023/11/28 12:30:54;;;;;;;34.37;24.60;;;10.90;90.70;;;;;;5065348;28;20282;-62
2023/11/28 12:33:23;;;;;;;36.60;26.17;;;10.90;90.80;;;;;;5066801;28;20205;-62
2023/11/28 12:35:51;;;;;;;35.47;24.23;;;11.00;90.60;;;;;;5068194;28;20212;-62
2023/11/28 12:38:18;;;;;;;42.83;27.50;;;11.10;90.90;;;;;;5069887;28;20208;-64
2023/11/28 12:40:45;;;;;;;32.40;23.63;;;11.10;90.40;;;;;;5067058;28;20195;-63